sensor_id;sensor_type;location;lat;lon;timestamp;pressure;altitude;pressure_sealevel;temperature;humidity
39363;BME280;25088;43.238;23.110;2023-04-08T00:00:04;96620.91;;;5.52;80.89
39363;BME280;25088;43.238;23.110;2023-04-08T00:02:32;96616.94;;;5.54;80.89
39363;BME280;25088;43.238;23.110;2023-04-08T00:04:58;96613.84;;;5.51;80.18
39363;BME280;25088;43.238;23.110;2023-04-08T00:07:23;96619.06;;;5.52;80.26
39363;BME280;25088;43.238;23.110;2023-04-08T00:09:48;96597.50;;;5.39;80.29
39363;BME280;25088;43.238;23.110;2023-04-08T00:12:14;96627.63;;;5.49;80.37
39363;BME280;25088;43.238;23.110;2023-04-08T00:14:39;96614.19;;;5.36;82.01
39363;BME280;25088;43.238;23.110;2023-04-08T00:17:06;96606.78;;;5.25;83.00
39363;BME280;25088;43.238;23.110;2023-04-08T00:19:31;96598.22;;;5.28;83.00
39363;BME280;25088;43.238;23.110;2023-04-08T00:21:57;96611.63;;;5.41;80.90
39363;BME280;25088;43.238;23.110;2023-04-08T00:24:23;96606.63;;;5.44;79.98
39363;BME280;25088;43.238;23.110;2023-04-08T00:26:49;96601.47;;;5.36;82.47
39363;BME280;25088;43.238;23.110;2023-04-08T00:29:14;96605.16;;;5.42;82.75
39363;BME280;25088;43.238;23.110;2023-04-08T00:31:40;96610.53;;;5.49;82.03
39363;BME280;25088;43.238;23.110;2023-04-08T00:34:06;96597.44;;;5.45;81.33
39363;BME280;25088;43.238;23.110;2023-04-08T00:36:31;96600.16;;;5.45;79.99
39363;BME280;25088;43.238;23.110;2023-04-08T00:38:57;96608.09;;;5.40;81.75
39363;BME280;25088;43.238;23.110;2023-04-08T00:41:22;96602.84;;;5.45;82.31
39363;BME280;25088;43.238;23.110;2023-04-08T00:43:48;96606.22;;;5.41;82.91
39363;BME280;25088;43.238;23.110;2023-04-08T00:46:14;96593.56;;;5.35;82.18
39363;BME280;25088;43.238;23.110;2023-04-08T00:48:39;96599.75;;;5.42;81.44
39363;BME280;25088;43.238;23.110;2023-04-08T00:51:05;96607.13;;;5.35;81.83
39363;BME280;25088;43.238;23.110;2023-04-08T00:53:31;96600.97;;;5.46;80.03
39363;BME280;25088;43.238;23.110;2023-04-08T00:55:56;96606.63;;;5.44;80.18
39363;BME280;25088;43.238;23.110;2023-04-08T00:58:22;96608.34;;;5.39;79.55
39363;BME280;25088;43.238;23.110;2023-04-08T01:00:57;96601.78;;;5.22;81.87
39363;BME280;25088;43.238;23.110;2023-04-08T01:03:34;96614.50;;;5.21;81.55
39363;BME280;25088;43.238;23.110;2023-04-08T01:06:14;96617.84;;;5.23;82.40
39363;BME280;25088;43.238;23.110;2023-04-08T01:08:44;96625.91;;;5.30;82.58
39363;BME280;25088;43.238;23.110;2023-04-08T01:11:10;96632.69;;;5.14;82.44
39363;BME280;25088;43.238;23.110;2023-04-08T01:13:39;96635.38;;;5.14;82.34
39363;BME280;25088;43.238;23.110;2023-04-08T01:16:09;96629.50;;;5.24;82.49
39363;BME280;25088;43.238;23.110;2023-04-08T01:18:36;96623.03;;;5.25;82.48
39363;BME280;25088;43.238;23.110;2023-04-08T01:21:04;96615.72;;;5.25;82.43
39363;BME280;25088;43.238;23.110;2023-04-08T01:23:51;96616.34;;;5.27;81.10
39363;BME280;25088;43.238;23.110;2023-04-08T01:26:23;96606.03;;;5.11;82.86
39363;BME280;25088;43.238;23.110;2023-04-08T01:28:52;96605.50;;;5.02;84.30
39363;BME280;25088;43.238;23.110;2023-04-08T01:31:18;96622.09;;;5.06;85.32
39363;BME280;25088;43.238;23.110;2023-04-08T01:33:45;96624.00;;;5.05;85.12
39363;BME280;25088;43.238;23.110;2023-04-08T01:36:13;96614.88;;;5.00;84.91
39363;BME280;25088;43.238;23.110;2023-04-08T01:38:38;96627.44;;;4.87;86.09
39363;BME280;25088;43.238;23.110;2023-04-08T01:41:04;96618.56;;;4.74;87.26
39363;BME280;25088;43.238;23.110;2023-04-08T01:43:32;96621.81;;;4.89;85.80
39363;BME280;25088;43.238;23.110;2023-04-08T01:45:59;96617.66;;;4.86;85.78
39363;BME280;25088;43.238;23.110;2023-04-08T01:48:27;96622.88;;;4.81;85.62
39363;BME280;25088;43.238;23.110;2023-04-08T01:50:53;96629.97;;;4.82;86.53
39363;BME280;25088;43.238;23.110;2023-04-08T01:53:20;96634.75;;;4.80;87.55
39363;BME280;25088;43.238;23.110;2023-04-08T01:55:48;96616.28;;;4.71;87.49
39363;BME280;25088;43.238;23.110;2023-04-08T01:58:18;96634.69;;;4.93;87.35
39363;BME280;25088;43.238;23.110;2023-04-08T02:00:45;96638.81;;;4.96;87.21
39363;BME280;25088;43.238;23.110;2023-04-08T02:03:12;96641.97;;;4.93;86.10
39363;BME280;25088;43.238;23.110;2023-04-08T02:05:39;96642.97;;;4.99;85.48
39363;BME280;25088;43.238;23.110;2023-04-08T02:08:05;96640.28;;;4.99;85.90
39363;BME280;25088;43.238;23.110;2023-04-08T02:10:30;96644.81;;;5.05;85.21
39363;BME280;25088;43.238;23.110;2023-04-08T02:12:56;96643.09;;;5.10;85.07
39363;BME280;25088;43.238;23.110;2023-04-08T02:15:22;96647.47;;;5.11;84.13
39363;BME280;25088;43.238;23.110;2023-04-08T02:17:54;96647.03;;;5.14;83.83
39363;BME280;25088;43.238;23.110;2023-04-08T02:20:25;96652.63;;;5.19;85.45
39363;BME280;25088;43.238;23.110;2023-04-08T02:25:43;96657.34;;;4.99;87.12
39363;BME280;25088;43.238;23.110;2023-04-08T02:28:10;96659.81;;;5.01;86.62
39363;BME280;25088;43.238;23.110;2023-04-08T02:30:43;96654.22;;;5.02;86.95
39363;BME280;25088;43.238;23.110;2023-04-08T02:33:12;96661.28;;;5.03;86.37
39363;BME280;25088;43.238;23.110;2023-04-08T02:35:39;96653.97;;;5.04;86.90
39363;BME280;25088;43.238;23.110;2023-04-08T02:38:05;96657.28;;;5.06;87.33
39363;BME280;25088;43.238;23.110;2023-04-08T02:40:32;96659.28;;;5.17;86.55
39363;BME280;25088;43.238;23.110;2023-04-08T02:42:59;96659.56;;;5.09;86.46
39363;BME280;25088;43.238;23.110;2023-04-08T02:45:40;96659.34;;;5.10;85.94
39363;BME280;25088;43.238;23.110;2023-04-08T02:48:06;96666.84;;;5.08;85.43
39363;BME280;25088;43.238;23.110;2023-04-08T02:50:31;96663.28;;;5.14;85.69
39363;BME280;25088;43.238;23.110;2023-04-08T02:52:56;96659.28;;;5.17;86.46
39363;BME280;25088;43.238;23.110;2023-04-08T02:55:22;96661.78;;;5.18;86.11
39363;BME280;25088;43.238;23.110;2023-04-08T02:57:48;96657.88;;;5.14;86.82
39363;BME280;25088;43.238;23.110;2023-04-08T03:00:14;96656.63;;;5.10;87.41
39363;BME280;25088;43.238;23.110;2023-04-08T03:02:39;96653.94;;;5.10;87.30
39363;BME280;25088;43.238;23.110;2023-04-08T03:05:05;96634.69;;;4.93;87.91
39363;BME280;25088;43.238;23.110;2023-04-08T03:07:32;96660.63;;;5.01;86.74
39363;BME280;25088;43.238;23.110;2023-04-08T03:09:57;96666.97;;;4.88;86.73
39363;BME280;25088;43.238;23.110;2023-04-08T03:12:23;96673.16;;;4.96;86.32
39363;BME280;25088;43.238;23.110;2023-04-08T03:14:49;96662.78;;;4.92;86.28
39363;BME280;25088;43.238;23.110;2023-04-08T03:17:15;96648.47;;;4.85;86.88
39363;BME280;25088;43.238;23.110;2023-04-08T03:19:41;96661.69;;;5.00;88.26
39363;BME280;25088;43.238;23.110;2023-04-08T03:22:06;96665.84;;;5.03;88.81
39363;BME280;25088;43.238;23.110;2023-04-08T03:24:34;96651.28;;;5.04;89.65
39363;BME280;25088;43.238;23.110;2023-04-08T03:26:59;96621.00;;;4.82;88.25
39363;BME280;25088;43.238;23.110;2023-04-08T03:29:25;96653.41;;;4.95;88.95
39363;BME280;25088;43.238;23.110;2023-04-08T03:31:51;96659.47;;;4.90;87.36
39363;BME280;25088;43.238;23.110;2023-04-08T03:34:17;96654.69;;;4.86;88.15
39363;BME280;25088;43.238;23.110;2023-04-08T03:36:42;96647.03;;;4.76;90.34
39363;BME280;25088;43.238;23.110;2023-04-08T03:39:08;96657.31;;;4.68;90.68
39363;BME280;25088;43.238;23.110;2023-04-08T03:41:34;96665.22;;;4.62;90.15
39363;BME280;25088;43.238;23.110;2023-04-08T03:44:00;96668.13;;;4.68;89.87
39363;BME280;25088;43.238;23.110;2023-04-08T03:46:25;96669.16;;;4.66;91.01
39363;BME280;25088;43.238;23.110;2023-04-08T03:48:50;96667.94;;;4.62;91.87
39363;BME280;25088;43.238;23.110;2023-04-08T03:51:16;96669.19;;;4.60;92.61
39363;BME280;25088;43.238;23.110;2023-04-08T03:53:41;96672.28;;;4.63;93.45
39363;BME280;25088;43.238;23.110;2023-04-08T03:56:07;96674.38;;;4.61;93.11
39363;BME280;25088;43.238;23.110;2023-04-08T03:58:32;96668.22;;;4.48;93.67
39363;BME280;25088;43.238;23.110;2023-04-08T04:00:58;96677.16;;;4.41;94.81
39363;BME280;25088;43.238;23.110;2023-04-08T04:03:23;96678.34;;;4.52;94.42
39363;BME280;25088;43.238;23.110;2023-04-08T04:05:49;96676.28;;;4.54;94.06
39363;BME280;25088;43.238;23.110;2023-04-08T04:08:15;96676.09;;;4.49;93.56
39363;BME280;25088;43.238;23.110;2023-04-08T04:10:40;96680.22;;;4.58;93.32
39363;BME280;25088;43.238;23.110;2023-04-08T04:13:05;96686.41;;;4.65;93.00
39363;BME280;25088;43.238;23.110;2023-04-08T04:15:31;96684.13;;;4.69;92.64
39363;BME280;25088;43.238;23.110;2023-04-08T04:17:57;96677.06;;;4.68;92.54
39363;BME280;25088;43.238;23.110;2023-04-08T04:20:22;96685.56;;;4.72;92.16
39363;BME280;25088;43.238;23.110;2023-04-08T04:22:48;96680.38;;;4.70;91.26
39363;BME280;25088;43.238;23.110;2023-04-08T04:25:13;96674.38;;;4.61;91.31
39363;BME280;25088;43.238;23.110;2023-04-08T04:27:39;96679.34;;;4.64;91.97
39363;BME280;25088;43.238;23.110;2023-04-08T04:30:05;96685.19;;;4.68;92.51
39363;BME280;25088;43.238;23.110;2023-04-08T04:32:31;96678.66;;;4.76;91.74
39363;BME280;25088;43.238;23.110;2023-04-08T04:34:57;96673.03;;;4.84;90.76
39363;BME280;25088;43.238;23.110;2023-04-08T04:37:22;96684.25;;;4.87;90.59
39363;BME280;25088;43.238;23.110;2023-04-08T04:39:47;96667.44;;;4.79;89.76
39363;BME280;25088;43.238;23.110;2023-04-08T04:42:13;96681.38;;;4.82;90.04
39363;BME280;25088;43.238;23.110;2023-04-08T04:44:38;96678.25;;;4.72;90.11
39363;BME280;25088;43.238;23.110;2023-04-08T04:47:04;96677.22;;;4.80;90.13
39363;BME280;25088;43.238;23.110;2023-04-08T04:49:29;96682.16;;;4.89;88.95
39363;BME280;25088;43.238;23.110;2023-04-08T04:51:55;96679.56;;;5.01;87.59
39363;BME280;25088;43.238;23.110;2023-04-08T04:54:20;96684.56;;;5.04;88.40
39363;BME280;25088;43.238;23.110;2023-04-08T04:56:46;96682.03;;;5.09;88.82
39363;BME280;25088;43.238;23.110;2023-04-08T04:59:11;96683.28;;;5.13;87.58
39363;BME280;25088;43.238;23.110;2023-04-08T05:01:37;96687.41;;;5.16;87.93
39363;BME280;25088;43.238;23.110;2023-04-08T05:04:05;96680.75;;;5.18;87.07
39363;BME280;25088;43.238;23.110;2023-04-08T05:06:30;96682.13;;;5.28;84.93
39363;BME280;25088;43.238;23.110;2023-04-08T05:08:56;96673.97;;;5.34;82.39
39363;BME280;25088;43.238;23.110;2023-04-08T05:11:21;96670.53;;;5.45;82.01
39363;BME280;25088;43.238;23.110;2023-04-08T05:13:47;96685.22;;;5.63;80.52
39363;BME280;25088;43.238;23.110;2023-04-08T05:16:12;96681.63;;;5.69;80.42
39363;BME280;25088;43.238;23.110;2023-04-08T05:18:38;96681.78;;;5.74;82.19
39363;BME280;25088;43.238;23.110;2023-04-08T05:21:03;96683.56;;;5.87;83.13
39363;BME280;25088;43.238;23.110;2023-04-08T05:23:29;96682.69;;;5.93;80.73
39363;BME280;25088;43.238;23.110;2023-04-08T05:25:54;96678.50;;;5.90;82.09
39363;BME280;25088;43.238;23.110;2023-04-08T05:28:20;96682.22;;;5.96;83.30
39363;BME280;25088;43.238;23.110;2023-04-08T05:30:49;96682.34;;;6.08;83.86
39363;BME280;25088;43.238;23.110;2023-04-08T05:33:15;96687.72;;;6.33;84.01
39363;BME280;25088;43.238;23.110;2023-04-08T05:35:41;96680.78;;;6.55;83.49
39363;BME280;25088;43.238;23.110;2023-04-08T05:38:06;96665.94;;;6.58;80.82
39363;BME280;25088;43.238;23.110;2023-04-08T05:40:32;96687.22;;;6.91;80.59
39363;BME280;25088;43.238;23.110;2023-04-08T05:42:57;96687.69;;;7.06;76.43
39363;BME280;25088;43.238;23.110;2023-04-08T05:45:23;96687.56;;;7.13;72.59
39363;BME280;25088;43.238;23.110;2023-04-08T05:47:48;96696.50;;;7.32;73.87
39363;BME280;25088;43.238;23.110;2023-04-08T05:50:14;96694.53;;;7.50;72.99
39363;BME280;25088;43.238;23.110;2023-04-08T05:52:43;96686.44;;;7.62;72.43
39363;BME280;25088;43.238;23.110;2023-04-08T05:55:09;96695.03;;;7.59;71.63
39363;BME280;25088;43.238;23.110;2023-04-08T05:57:35;96693.50;;;7.63;72.28
39363;BME280;25088;43.238;23.110;2023-04-08T06:00:01;96691.13;;;7.55;71.64
39363;BME280;25088;43.238;23.110;2023-04-08T06:02:26;96693.44;;;7.40;71.77
39363;BME280;25088;43.238;23.110;2023-04-08T06:04:52;96694.31;;;7.52;70.99
39363;BME280;25088;43.238;23.110;2023-04-08T06:07:17;96691.81;;;7.50;70.01
39363;BME280;25088;43.238;23.110;2023-04-08T06:09:43;96699.84;;;7.45;69.84
39363;BME280;25088;43.238;23.110;2023-04-08T06:12:08;96682.97;;;7.55;68.72
39363;BME280;25088;43.238;23.110;2023-04-08T06:14:33;96696.72;;;7.72;67.66
39363;BME280;25088;43.238;23.110;2023-04-08T06:16:59;96686.38;;;7.50;67.93
39363;BME280;25088;43.238;23.110;2023-04-08T06:19:24;96685.44;;;7.45;67.87
39363;BME280;25088;43.238;23.110;2023-04-08T06:21:50;96700.94;;;7.56;66.81
39363;BME280;25088;43.238;23.110;2023-04-08T06:24:16;96697.19;;;7.81;65.90
39363;BME280;25088;43.238;23.110;2023-04-08T06:26:41;96695.47;;;7.98;65.20
39363;BME280;25088;43.238;23.110;2023-04-08T06:29:07;96690.47;;;7.95;64.48
39363;BME280;25088;43.238;23.110;2023-04-08T06:31:33;96688.03;;;8.17;62.62
39363;BME280;25088;43.238;23.110;2023-04-08T06:33:59;96687.53;;;8.20;64.01
39363;BME280;25088;43.238;23.110;2023-04-08T06:36:24;96696.53;;;8.32;63.14
39363;BME280;25088;43.238;23.110;2023-04-08T06:38:50;96682.81;;;8.15;67.32
39363;BME280;25088;43.238;23.110;2023-04-08T06:41:16;96706.56;;;8.20;68.98
39363;BME280;25088;43.238;23.110;2023-04-08T06:43:41;96691.22;;;8.02;68.88
39363;BME280;25088;43.238;23.110;2023-04-08T06:46:06;96701.84;;;8.27;75.48
39363;BME280;25088;43.238;23.110;2023-04-08T06:48:32;96701.06;;;8.38;68.16
39363;BME280;25088;43.238;23.110;2023-04-08T06:50:59;96708.63;;;8.36;67.20
39363;BME280;25088;43.238;23.110;2023-04-08T06:53:26;96706.25;;;8.40;66.25
39363;BME280;25088;43.238;23.110;2023-04-08T06:55:53;96683.16;;;8.54;68.42
39363;BME280;25088;43.238;23.110;2023-04-08T06:58:19;96707.63;;;8.77;63.14
39363;BME280;25088;43.238;23.110;2023-04-08T07:00:44;96676.69;;;8.95;61.67
39363;BME280;25088;43.238;23.110;2023-04-08T07:03:10;96707.09;;;9.32;60.98
39363;BME280;25088;43.238;23.110;2023-04-08T07:05:36;96710.94;;;9.48;60.29
39363;BME280;25088;43.238;23.110;2023-04-08T07:08:03;96713.81;;;9.42;60.51
39363;BME280;25088;43.238;23.110;2023-04-08T07:10:28;96705.00;;;9.51;59.12
39363;BME280;25088;43.238;23.110;2023-04-08T07:12:53;96711.47;;;9.62;59.54
39363;BME280;25088;43.238;23.110;2023-04-08T07:15:19;96713.25;;;9.85;58.50
39363;BME280;25088;43.238;23.110;2023-04-08T07:17:44;96709.22;;;10.04;57.42
39363;BME280;25088;43.238;23.110;2023-04-08T07:20:11;96706.25;;;10.40;56.16
39363;BME280;25088;43.238;23.110;2023-04-08T07:22:38;96704.78;;;10.54;56.54
39363;BME280;25088;43.238;23.110;2023-04-08T07:25:04;96702.47;;;10.63;55.15
39363;BME280;25088;43.238;23.110;2023-04-08T07:27:29;96711.69;;;10.78;54.89
39363;BME280;25088;43.238;23.110;2023-04-08T07:29:55;96718.97;;;10.90;54.75
39363;BME280;25088;43.238;23.110;2023-04-08T07:32:20;96707.97;;;10.84;54.31
39363;BME280;25088;43.238;23.110;2023-04-08T07:34:46;96727.22;;;10.95;53.64
39363;BME280;25088;43.238;23.110;2023-04-08T07:37:11;96725.94;;;11.02;53.81
39363;BME280;25088;43.238;23.110;2023-04-08T07:39:37;96720.22;;;11.04;52.09
39363;BME280;25088;43.238;23.110;2023-04-08T07:42:02;96720.94;;;11.16;53.58
39363;BME280;25088;43.238;23.110;2023-04-08T07:44:28;96719.56;;;11.19;52.10
39363;BME280;25088;43.238;23.110;2023-04-08T07:46:53;96722.63;;;11.22;52.30
39363;BME280;25088;43.238;23.110;2023-04-08T07:49:19;96724.97;;;11.13;51.65
39363;BME280;25088;43.238;23.110;2023-04-08T07:51:44;96730.38;;;11.08;52.43
39363;BME280;25088;43.238;23.110;2023-04-08T07:54:09;96731.06;;;10.99;52.47
39363;BME280;25088;43.238;23.110;2023-04-08T07:56:37;96739.66;;;10.85;52.04
39363;BME280;25088;43.238;23.110;2023-04-08T07:59:05;96736.91;;;10.85;52.62
39363;BME280;25088;43.238;23.110;2023-04-08T08:01:31;96738.91;;;10.90;51.86
39363;BME280;25088;43.238;23.110;2023-04-08T08:03:59;96736.88;;;11.02;51.71
39363;BME280;25088;43.238;23.110;2023-04-08T08:06:24;96733.06;;;11.25;51.56
39363;BME280;25088;43.238;23.110;2023-04-08T08:08:50;96744.19;;;11.41;51.84
39363;BME280;25088;43.238;23.110;2023-04-08T08:11:15;96744.78;;;11.48;50.81
39363;BME280;25088;43.238;23.110;2023-04-08T08:13:41;96730.44;;;11.35;50.94
39363;BME280;25088;43.238;23.110;2023-04-08T08:16:07;96742.69;;;11.33;51.73
39363;BME280;25088;43.238;23.110;2023-04-08T08:18:35;96745.66;;;11.53;50.80
39363;BME280;25088;43.238;23.110;2023-04-08T08:21:01;96739.50;;;11.85;50.27
39363;BME280;25088;43.238;23.110;2023-04-08T08:23:27;96738.38;;;12.13;50.03
39363;BME280;25088;43.238;23.110;2023-04-08T08:26:03;96740.00;;;12.09;48.75
39363;BME280;25088;43.238;23.110;2023-04-08T08:28:31;96725.69;;;12.02;49.79
39363;BME280;25088;43.238;23.110;2023-04-08T08:30:57;96739.94;;;12.36;49.49
39363;BME280;25088;43.238;23.110;2023-04-08T08:33:23;96737.50;;;12.39;49.74
39363;BME280;25088;43.238;23.110;2023-04-08T08:35:48;96740.53;;;12.43;49.41
39363;BME280;25088;43.238;23.110;2023-04-08T08:38:14;96741.84;;;12.35;49.45
39363;BME280;25088;43.238;23.110;2023-04-08T08:40:42;96751.16;;;12.34;50.42
39363;BME280;25088;43.238;23.110;2023-04-08T08:43:08;96749.25;;;12.35;49.67
39363;BME280;25088;43.238;23.110;2023-04-08T08:45:38;96743.75;;;12.72;48.51
39363;BME280;25088;43.238;23.110;2023-04-08T08:48:03;96737.34;;;12.99;48.30
39363;BME280;25088;43.238;23.110;2023-04-08T08:50:30;96741.25;;;13.13;47.60
39363;BME280;25088;43.238;23.110;2023-04-08T08:52:55;96747.25;;;13.05;47.92
39363;BME280;25088;43.238;23.110;2023-04-08T08:55:21;96736.63;;;13.18;47.03
39363;BME280;25088;43.238;23.110;2023-04-08T08:57:49;96722.19;;;13.38;46.54
39363;BME280;25088;43.238;23.110;2023-04-08T09:00:16;96736.50;;;13.51;45.73
39363;BME280;25088;43.238;23.110;2023-04-08T09:02:42;96746.38;;;13.52;45.97
39363;BME280;25088;43.238;23.110;2023-04-08T09:05:07;96726.56;;;13.29;45.25
39363;BME280;25088;43.238;23.110;2023-04-08T09:07:37;96743.03;;;13.39;45.21
39363;BME280;25088;43.238;23.110;2023-04-08T09:10:06;96732.03;;;13.29;44.95
39363;BME280;25088;43.238;23.110;2023-04-08T09:12:32;96747.97;;;13.42;45.89
39363;BME280;25088;43.238;23.110;2023-04-08T09:15:08;96753.66;;;13.26;45.39
39363;BME280;25088;43.238;23.110;2023-04-08T09:17:36;96750.91;;;12.73;46.24
39363;BME280;25088;43.238;23.110;2023-04-08T09:20:09;96758.34;;;12.46;46.49
39363;BME280;25088;43.238;23.110;2023-04-08T09:22:58;96761.66;;;12.15;47.54
39363;BME280;25088;43.238;23.110;2023-04-08T09:25:31;96760.78;;;12.10;47.89
39363;BME280;25088;43.238;23.110;2023-04-08T09:27:57;96766.16;;;12.00;48.17
39363;BME280;25088;43.238;23.110;2023-04-08T09:30:24;96769.88;;;12.15;48.61
39363;BME280;25088;43.238;23.110;2023-04-08T09:32:52;96759.91;;;12.36;48.58
39363;BME280;25088;43.238;23.110;2023-04-08T09:35:19;96755.94;;;12.49;49.29
39363;BME280;25088;43.238;23.110;2023-04-08T09:37:44;96764.13;;;12.86;48.23
39363;BME280;25088;43.238;23.110;2023-04-08T09:40:11;96758.94;;;12.90;47.92
39363;BME280;25088;43.238;23.110;2023-04-08T09:42:40;96763.16;;;13.08;47.47
39363;BME280;25088;43.238;23.110;2023-04-08T09:45:08;96752.31;;;13.28;47.06
39363;BME280;25088;43.238;23.110;2023-04-08T09:47:43;96758.91;;;13.32;47.63
39363;BME280;25088;43.238;23.110;2023-04-08T09:50:19;96752.78;;;13.15;47.52
39363;BME280;25088;43.238;23.110;2023-04-08T09:52:51;96764.66;;;12.83;46.54
39363;BME280;25088;43.238;23.110;2023-04-08T09:55:21;96765.94;;;12.71;47.08
39363;BME280;25088;43.238;23.110;2023-04-08T09:57:51;96770.13;;;12.46;48.61
39363;BME280;25088;43.238;23.110;2023-04-08T10:00:22;96766.56;;;12.46;47.99
39363;BME280;25088;43.238;23.110;2023-04-08T10:05:26;96766.88;;;12.49;49.43
39363;BME280;25088;43.238;23.110;2023-04-08T10:07:52;96747.09;;;12.42;50.00
39363;BME280;25088;43.238;23.110;2023-04-08T10:10:18;96765.13;;;12.70;49.82
39363;BME280;25088;43.238;23.110;2023-04-08T10:12:44;96744.34;;;12.79;49.29
39363;BME280;25088;43.238;23.110;2023-04-08T10:15:23;96753.50;;;12.95;48.25
39363;BME280;25088;43.238;23.110;2023-04-08T10:17:49;96749.75;;;13.16;48.18
39363;BME280;25088;43.238;23.110;2023-04-08T10:20:40;96757.84;;;13.38;48.55
39363;BME280;25088;43.238;23.110;2023-04-08T10:25:39;96754.38;;;13.68;48.26
39363;BME280;25088;43.238;23.110;2023-04-08T10:33:18;96754.94;;;13.70;47.39
39363;BME280;25088;43.238;23.110;2023-04-08T10:35:52;96755.25;;;13.89;47.33
39363;BME280;25088;43.238;23.110;2023-04-08T10:38:18;96747.88;;;14.05;47.00
39363;BME280;25088;43.238;23.110;2023-04-08T10:40:44;96740.22;;;14.07;47.21
39363;BME280;25088;43.238;23.110;2023-04-08T10:43:11;96747.66;;;14.47;46.81
39363;BME280;25088;43.238;23.110;2023-04-08T10:45:38;96738.03;;;14.60;44.95
39363;BME280;25088;43.238;23.110;2023-04-08T10:50:42;96728.31;;;13.71;46.20
39363;BME280;25088;43.238;23.110;2023-04-08T10:53:09;96745.22;;;13.37;47.37
39363;BME280;25088;43.238;23.110;2023-04-08T10:55:35;96749.59;;;13.33;48.05
39363;BME280;25088;43.238;23.110;2023-04-08T10:58:08;96759.22;;;12.88;47.82
39363;BME280;25088;43.238;23.110;2023-04-08T11:00:36;96755.19;;;13.06;47.80
39363;BME280;25088;43.238;23.110;2023-04-08T11:03:07;96759.72;;;13.28;47.25
39363;BME280;25088;43.238;23.110;2023-04-08T11:05:33;96749.16;;;13.67;47.21
39363;BME280;25088;43.238;23.110;2023-04-08T11:08:01;96742.97;;;14.17;46.27
39363;BME280;25088;43.238;23.110;2023-04-08T11:10:27;96718.25;;;14.43;45.76
39363;BME280;25088;43.238;23.110;2023-04-08T11:12:56;96736.38;;;14.54;46.28
39363;BME280;25088;43.238;23.110;2023-04-08T11:15:25;96740.75;;;14.35;46.03
39363;BME280;25088;43.238;23.110;2023-04-08T11:17:53;96739.44;;;14.47;46.30
39363;BME280;25088;43.238;23.110;2023-04-08T11:20:19;96732.22;;;14.87;45.02
39363;BME280;25088;43.238;23.110;2023-04-08T11:22:46;96718.50;;;15.57;44.04
39363;BME280;25088;43.238;23.110;2023-04-08T11:25:11;96728.72;;;15.51;44.41
39363;BME280;25088;43.238;23.110;2023-04-08T11:27:38;96726.63;;;15.88;43.66
39363;BME280;25088;43.238;23.110;2023-04-08T11:30:04;96729.22;;;15.64;43.86
39363;BME280;25088;43.238;23.110;2023-04-08T11:32:31;96733.56;;;15.00;44.39
39363;BME280;25088;43.238;23.110;2023-04-08T11:35:00;96727.00;;;14.81;46.65
39363;BME280;25088;43.238;23.110;2023-04-08T11:37:35;96726.19;;;14.39;47.10
39363;BME280;25088;43.238;23.110;2023-04-08T11:40:01;96724.56;;;14.08;48.10
39363;BME280;25088;43.238;23.110;2023-04-08T11:42:31;96719.25;;;13.65;48.69
39363;BME280;25088;43.238;23.110;2023-04-08T11:44:56;96732.63;;;13.47;50.10
39363;BME280;25088;43.238;23.110;2023-04-08T11:47:32;96734.53;;;13.36;48.89
39363;BME280;25088;43.238;23.110;2023-04-08T11:49:59;96729.19;;;13.14;50.49
39363;BME280;25088;43.238;23.110;2023-04-08T11:52:45;96737.81;;;12.85;50.24
39363;BME280;25088;43.238;23.110;2023-04-08T11:55:20;96736.13;;;12.42;51.01
39363;BME280;25088;43.238;23.110;2023-04-08T11:57:46;96733.09;;;12.33;51.15
39363;BME280;25088;43.238;23.110;2023-04-08T12:00:12;96732.47;;;12.26;51.13
39363;BME280;25088;43.238;23.110;2023-04-08T12:02:38;96729.75;;;12.31;50.99
39363;BME280;25088;43.238;23.110;2023-04-08T12:05:05;96733.09;;;12.33;51.87
39363;BME280;25088;43.238;23.110;2023-04-08T12:07:31;96717.06;;;12.15;52.12
39363;BME280;25088;43.238;23.110;2023-04-08T12:09:56;96734.16;;;12.32;51.41
39363;BME280;25088;43.238;23.110;2023-04-08T12:12:22;96730.16;;;12.13;52.31
39363;BME280;25088;43.238;23.110;2023-04-08T12:14:48;96728.88;;;12.21;52.92
39363;BME280;25088;43.238;23.110;2023-04-08T12:17:13;96732.66;;;11.87;54.24
39363;BME280;25088;43.238;23.110;2023-04-08T12:19:39;96727.72;;;11.62;56.04
39363;BME280;25088;43.238;23.110;2023-04-08T12:22:05;96717.03;;;11.34;56.91
39363;BME280;25088;43.238;23.110;2023-04-08T12:24:31;96735.09;;;11.13;61.47
39363;BME280;25088;43.238;23.110;2023-04-08T12:26:56;96734.13;;;10.80;63.66
39363;BME280;25088;43.238;23.110;2023-04-08T12:29:21;96739.22;;;10.55;61.24
39363;BME280;25088;43.238;23.110;2023-04-08T12:31:47;96729.72;;;10.41;61.86
39363;BME280;25088;43.238;23.110;2023-04-08T12:34:12;96739.91;;;10.45;65.56
39363;BME280;25088;43.238;23.110;2023-04-08T12:36:38;96743.16;;;10.64;67.64
39363;BME280;25088;43.238;23.110;2023-04-08T12:39:03;96744.91;;;10.70;67.91
39363;BME280;25088;43.238;23.110;2023-04-08T12:41:29;96719.69;;;10.46;69.60
39363;BME280;25088;43.238;23.110;2023-04-08T12:43:54;96749.72;;;10.46;73.98
39363;BME280;25088;43.238;23.110;2023-04-08T12:46:20;96746.69;;;10.26;73.39
39363;BME280;25088;43.238;23.110;2023-04-08T12:48:45;96750.69;;;10.06;77.73
39363;BME280;25088;43.238;23.110;2023-04-08T12:51:12;96741.66;;;9.89;81.67
39363;BME280;25088;43.238;23.110;2023-04-08T12:53:38;96737.72;;;9.51;82.43
39363;BME280;25088;43.238;23.110;2023-04-08T12:56:03;96753.38;;;9.16;83.88
39363;BME280;25088;43.238;23.110;2023-04-08T12:58:29;96756.50;;;8.72;89.60
39363;BME280;25088;43.238;23.110;2023-04-08T13:00:54;96760.53;;;8.58;94.79
39363;BME280;25088;43.238;23.110;2023-04-08T13:03:20;96763.03;;;8.48;99.40
39363;BME280;25088;43.238;23.110;2023-04-08T13:05:46;96762.66;;;8.33;100.00
39363;BME280;25088;43.238;23.110;2023-04-08T13:08:11;96762.97;;;8.24;100.00